createdAt,value
2022-12-11T00:00:56.258Z,94784.03
2022-12-11T00:01:58.186Z,94784.03
2022-12-11T00:03:01.154Z,94784.03
2022-12-11T00:04:03.273Z,94779.41
2022-12-11T00:05:07.056Z,94778.25
2022-12-11T00:06:10.652Z,94775.56
2022-12-11T00:07:13.556Z,94788.25
2022-12-11T00:08:15.623Z,94787.88
2022-12-11T00:09:18.958Z,94791.31
2022-12-11T00:10:20.884Z,94788.63
2022-12-11T00:11:25.599Z,94790.94
2022-12-11T00:12:27.583Z,94793.28
2022-12-11T00:13:30.691Z,94789.03
2022-12-11T00:14:33.081Z,94786.31
2022-12-11T00:15:39.016Z,94782.50
2022-12-11T00:16:40.967Z,94792.47
2022-12-11T00:17:43.871Z,94791.72
2022-12-11T00:18:45.803Z,94787.09
2022-12-11T00:19:48.792Z,94784.03
2022-12-11T00:20:50.766Z,94785.56
2022-12-11T00:21:53.670Z,94787.09
2022-12-11T00:22:55.532Z,94787.88
2022-12-11T00:23:58.452Z,94786.72
2022-12-11T00:25:02.353Z,94780.94
2022-12-11T00:26:06.905Z,94781.72
2022-12-11T00:27:11.625Z,94786.31
2022-12-11T00:28:15.724Z,94777.47
2022-12-11T00:29:18.569Z,94775.16
2022-12-11T00:30:20.419Z,94777.09
2022-12-11T00:31:24.411Z,94779.03
2022-12-11T00:32:28.456Z,94782.50
2022-12-11T00:33:31.743Z,94784.03
2022-12-11T00:34:33.592Z,94783.25
2022-12-11T00:35:40.133Z,94787.88
2022-12-11T00:36:42.073Z,94781.31
2022-12-11T00:37:45.277Z,94784.41
2022-12-11T00:38:48.794Z,94773.22
2022-12-11T00:39:51.770Z,94770.94
2022-12-11T00:40:53.671Z,94775.56
2022-12-11T00:41:56.512Z,94781.72
2022-12-11T00:42:59.970Z,94777.84
2022-12-11T00:44:02.983Z,94786.34
2022-12-11T00:45:05.617Z,94777.06
2022-12-11T00:46:09.034Z,94772.09
2022-12-11T00:47:10.994Z,94779.41
2022-12-11T00:48:14.457Z,94774.78
2022-12-11T00:49:18.029Z,94783.25
2022-12-11T00:50:19.959Z,94778.63
2022-12-11T00:51:22.891Z,94784.00
2022-12-11T00:52:24.770Z,94787.47
2022-12-11T00:53:28.094Z,94788.22
2022-12-11T00:54:31.480Z,94790.16
2022-12-11T00:55:37.301Z,94787.47
2022-12-11T00:56:40.529Z,94784.00
2022-12-11T00:57:42.770Z,94784.00
2022-12-11T00:58:48.935Z,94777.88
2022-12-11T00:59:51.832Z,94777.06
2022-12-11T01:00:54.071Z,94788.22
2022-12-11T01:01:57.001Z,94786.69
2022-12-11T01:02:59.039Z,94786.34
2022-12-11T01:04:02.152Z,94789.03
2022-12-11T01:05:04.730Z,94789.41
2022-12-11T01:06:08.950Z,94785.53
2022-12-11T01:07:11.839Z,94793.63
2022-12-11T01:08:13.873Z,94792.47
2022-12-11T01:09:34.309Z,94789.78
2022-12-11T01:10:37.223Z,94792.47
2022-12-11T01:11:41.180Z,94786.34
2022-12-11T01:12:43.099Z,94795.53
2022-12-11T01:13:47.376Z,94786.34
2022-12-11T01:14:49.220Z,94797.09
2022-12-11T01:15:52.165Z,94794.41
2022-12-11T01:16:54.045Z,94792.47
2022-12-11T01:17:57.528Z,94794.00
2022-12-11T01:19:00.958Z,94794.78
2022-12-11T01:20:04.279Z,94788.63
2022-12-11T01:21:08.455Z,94795.56
2022-12-11T01:22:10.381Z,94796.69
2022-12-11T01:23:14.441Z,94797.09
2022-12-11T01:24:16.339Z,94803.63
2022-12-11T01:25:19.499Z,94804.38
2022-12-11T01:26:21.720Z,94805.53
2022-12-11T01:27:24.685Z,94807.06
2022-12-11T01:28:26.638Z,94810.94
2022-12-11T01:29:31.033Z,94808.25
2022-12-11T01:30:33.372Z,94811.69
2022-12-11T01:31:36.281Z,94807.47
2022-12-11T01:32:38.166Z,94816.69
2022-12-11T01:33:41.751Z,94812.81
2022-12-11T01:34:43.694Z,94816.69
2022-12-11T01:35:46.790Z,94817.06
2022-12-11T01:36:48.666Z,94817.06
2022-12-11T01:37:51.551Z,94810.09
2022-12-11T01:38:54.523Z,94818.56
2022-12-11T01:39:57.594Z,94821.66
2022-12-11T01:40:59.499Z,94824.75
2022-12-11T01:42:02.706Z,94827.06
2022-12-11T01:43:04.640Z,94827.41
2022-12-11T01:44:09.602Z,94826.25
2022-12-11T01:45:35.081Z,94820.50
2022-12-11T01:46:38.496Z,94819.72
2022-12-11T01:47:40.691Z,94821.28
2022-12-11T01:48:43.701Z,94820.13
2022-12-11T01:49:45.661Z,94825.50
2022-12-11T01:50:51.720Z,94829.75
2022-12-11T01:51:58.925Z,94824.75
2022-12-11T01:53:02.476Z,94822.44
2022-12-11T01:54:08.834Z,94821.28
2022-12-11T01:55:10.962Z,94817.03
2022-12-11T01:56:14.339Z,94823.22
2022-12-11T01:57:16.587Z,94825.13
2022-12-11T01:58:21.153Z,94832.06
2022-12-11T01:59:27.279Z,94830.91
2022-12-11T02:00:30.506Z,94826.69
2022-12-11T02:01:37.080Z,94823.22
2022-12-11T02:02:40.273Z,94823.97
2022-12-11T02:03:42.616Z,94829.75
2022-12-11T02:04:46.962Z,94833.22
2022-12-11T02:05:50.111Z,94831.28
2022-12-11T02:06:53.106Z,94839.38
2022-12-11T02:07:59.419Z,94840.13
2022-12-11T02:09:02.383Z,94838.56
2022-12-11T02:10:06.401Z,94842.81
2022-12-11T02:11:14.602Z,94836.28
2022-12-11T02:12:25.837Z,94832.81
2022-12-11T02:13:35.252Z,94832.06
2022-12-11T02:14:44.035Z,94829.38
2022-12-11T02:15:52.120Z,94817.03
2022-12-11T02:16:58.394Z,94826.28
2022-12-11T02:18:13.282Z,94823.97
2022-12-11T02:19:31.025Z,94819.38
2022-12-11T02:20:38.578Z,94816.69
2022-12-11T02:21:46.250Z,94813.59
2022-12-11T02:23:04.900Z,94817.03
2022-12-11T02:24:39.235Z,94814.34
2022-12-11T02:25:52.346Z,94815.13
2022-12-11T02:27:12.399Z,94815.50
2022-12-11T02:28:21.188Z,94808.22
2022-12-11T02:29:31.599Z,94820.13
2022-12-11T02:30:35.684Z,94819.34
2022-12-11T02:31:42.657Z,94809.75
2022-12-11T02:32:48.708Z,94805.53
2022-12-11T02:33:58.595Z,94810.50
2022-12-11T02:35:07.245Z,94819.34
2022-12-11T02:36:11.104Z,94810.13
2022-12-11T02:37:19.903Z,94816.25
2022-12-11T02:38:28.567Z,94813.19
2022-12-11T02:39:33.447Z,94815.91
2022-12-11T02:40:40.761Z,94815.50
2022-12-11T02:41:46.848Z,94814.72
2022-12-11T02:42:51.683Z,94822.41
2022-12-11T02:43:57.858Z,94818.19
2022-12-11T02:45:02.642Z,94820.88
2022-12-11T02:46:08.104Z,94817.81
2022-12-11T02:47:15.029Z,94820.13
2022-12-11T02:48:17.830Z,94822.03
2022-12-11T02:49:22.434Z,94821.66
2022-12-11T02:50:28.102Z,94829.75
2022-12-11T02:51:36.350Z,94820.88
2022-12-11T02:52:40.576Z,94820.13
2022-12-11T02:53:43.836Z,94821.66
2022-12-11T02:54:48.802Z,94832.81
2022-12-11T02:55:58.442Z,94834.72
2022-12-11T02:57:07.358Z,94824.38
2022-12-11T02:58:14.533Z,94824.38
2022-12-11T02:59:24.867Z,94821.66
2022-12-11T03:00:28.143Z,94822.44
2022-12-11T03:01:30.273Z,94821.66
2022-12-11T03:02:33.461Z,94821.66
2022-12-11T03:03:35.475Z,94820.50
2022-12-11T03:04:38.908Z,94831.28
2022-12-11T03:05:41.676Z,94821.28
2022-12-11T03:06:50.177Z,94829.75
2022-12-11T03:07:52.129Z,94821.66
2022-12-11T03:08:55.056Z,94821.66
2022-12-11T03:09:57.093Z,94821.66
2022-12-11T03:11:00.238Z,94827.06
2022-12-11T03:12:02.334Z,94825.50
2022-12-11T03:13:05.971Z,94825.50
2022-12-11T03:14:08.545Z,94824.72
2022-12-11T03:15:16.188Z,94824.72
2022-12-11T03:16:29.608Z,94830.13
2022-12-11T03:17:39.671Z,94824.72
2022-12-11T03:18:49.649Z,94827.06
2022-12-11T03:20:01.690Z,94830.88
2022-12-11T03:21:08.313Z,94828.97
2022-12-11T03:22:13.566Z,94826.25
2022-12-11T03:23:21.604Z,94831.66
2022-12-11T03:24:31.582Z,94836.28
2022-12-11T03:25:42.138Z,94825.88
2022-12-11T03:26:56.214Z,94829.31
2022-12-11T03:28:05.704Z,94828.56
2022-12-11T03:29:15.108Z,94823.94
2022-12-11T03:30:20.011Z,94828.56
2022-12-11T03:31:28.533Z,94833.19
2022-12-11T03:32:39.634Z,94823.19
2022-12-11T03:33:44.742Z,94830.09
2022-12-11T03:34:58.180Z,94828.56
2022-12-11T03:36:05.504Z,94832.78
2022-12-11T03:37:10.573Z,94833.94
2022-12-11T03:38:17.269Z,94828.56
2022-12-11T03:39:24.691Z,94833.94
2022-12-11T03:40:28.801Z,94827.78
2022-12-11T03:41:34.356Z,94825.88
2022-12-11T03:42:38.826Z,94825.47
2022-12-11T03:43:42.621Z,94833.56
2022-12-11T03:44:48.022Z,94833.91
2022-12-11T03:45:54.847Z,94836.63
2022-12-11T03:47:00.065Z,94831.63
2022-12-11T03:48:04.303Z,94842.41
2022-12-11T03:49:10.792Z,94842.41
2022-12-11T03:50:17.596Z,94845.44
2022-12-11T03:51:21.697Z,94846.22
2022-12-11T03:52:27.314Z,94850.84
2022-12-11T03:53:29.685Z,94842.00
2022-12-11T03:54:32.855Z,94844.69
2022-12-11T03:55:37.884Z,94844.69
2022-12-11T03:56:42.575Z,94846.63
2022-12-11T03:57:45.004Z,94842.00
2022-12-11T03:58:48.037Z,94845.06
2022-12-11T03:59:50.200Z,94847.75
2022-12-11T04:00:54.582Z,94851.19
2022-12-11T04:01:56.548Z,94848.50
2022-12-11T04:03:14.976Z,94852.38
2022-12-11T04:04:17.570Z,94847.38
2022-12-11T04:05:20.499Z,94848.13
2022-12-11T04:06:22.486Z,94845.06
2022-12-11T04:07:25.410Z,94849.31
2022-12-11T04:08:27.397Z,94841.22
2022-12-11T04:09:30.389Z,94846.97
2022-12-11T04:10:32.327Z,94853.91
2022-12-11T04:11:39.575Z,94848.50
2022-12-11T04:12:41.572Z,94848.50
2022-12-11T04:13:44.464Z,94848.50
2022-12-11T04:15:01.890Z,94846.97
2022-12-11T04:16:06.055Z,94849.69
2022-12-11T04:17:08.968Z,94846.97
2022-12-11T04:18:29.609Z,94843.94
2022-12-11T04:19:49.876Z,94839.31
2022-12-11T04:21:12.336Z,94851.19
2022-12-11T04:22:34.966Z,94848.50
2022-12-11T04:23:55.555Z,94855.44
2022-12-11T04:24:58.688Z,94850.06
2022-12-11T04:26:04.512Z,94848.50
2022-12-11T04:27:07.934Z,94845.81
2022-12-11T04:28:10.067Z,94855.44
2022-12-11T04:29:13.447Z,94850.06
2022-12-11T04:30:18.699Z,94847.38
2022-12-11T04:31:23.818Z,94853.91
2022-12-11T04:32:25.783Z,94857.75
2022-12-11T04:33:29.055Z,94850.84
2022-12-11T04:34:31.101Z,94851.59
2022-12-11T04:35:34.065Z,94853.91
2022-12-11T04:36:36.049Z,94851.59
2022-12-11T04:37:39.420Z,94853.13
2022-12-11T04:38:41.556Z,94851.59
2022-12-11T04:39:44.493Z,94855.06
2022-12-11T04:40:46.328Z,94847.75
2022-12-11T04:41:49.232Z,94845.06
2022-12-11T04:42:51.246Z,94848.50
2022-12-11T04:43:54.143Z,94842.38
2022-12-11T04:44:55.966Z,94844.28
2022-12-11T04:46:03.309Z,94851.19
2022-12-11T04:47:06.667Z,94847.75
2022-12-11T04:48:09.596Z,94851.59
2022-12-11T04:49:12.591Z,94845.44
2022-12-11T04:50:16.328Z,94850.03
2022-12-11T04:51:18.776Z,94845.44
2022-12-11T04:52:21.813Z,94846.97
2022-12-11T04:53:23.987Z,94845.44
2022-12-11T04:54:26.816Z,94845.44
2022-12-11T04:55:28.697Z,94845.44
2022-12-11T04:56:31.630Z,94858.91
2022-12-11T04:57:33.638Z,94856.22
2022-12-11T04:58:37.589Z,94856.22
2022-12-11T04:59:39.519Z,94856.22
2022-12-11T05:00:42.909Z,94851.59
2022-12-11T05:01:44.807Z,94850.03
2022-12-11T05:02:49.158Z,94850.84
2022-12-11T05:03:51.220Z,94849.28
2022-12-11T05:04:54.159Z,94847.75
2022-12-11T05:05:55.971Z,94842.38
2022-12-11T05:06:58.921Z,94846.97
2022-12-11T05:08:00.951Z,94835.44
2022-12-11T05:09:03.879Z,94837.34
2022-12-11T05:10:06.975Z,94840.03
2022-12-11T05:11:11.745Z,94833.91
2022-12-11T05:12:13.590Z,94834.66
2022-12-11T05:13:16.447Z,94835.44
2022-12-11T05:14:18.475Z,94830.81
2022-12-11T05:15:21.390Z,94830.03
2022-12-11T05:16:23.320Z,94833.50
2022-12-11T05:17:26.210Z,94831.59
2022-12-11T05:18:29.587Z,94822.75
2022-12-11T05:19:32.559Z,94827.00
2022-12-11T05:20:35.433Z,94820.06
2022-12-11T05:21:38.606Z,94824.66
2022-12-11T05:22:41.532Z,94825.44
2022-12-11T05:23:43.809Z,94819.28
2022-12-11T05:24:46.685Z,94813.91
2022-12-11T05:25:52.263Z,94819.28
2022-12-11T05:26:55.159Z,94817.34
2022-12-11T05:27:59.603Z,94811.22
2022-12-11T05:29:02.494Z,94813.13
2022-12-11T05:30:05.408Z,94815.47
2022-12-11T05:31:12.811Z,94810.44
2022-12-11T05:32:14.899Z,94813.91
2022-12-11T05:33:18.818Z,94813.91
2022-12-11T05:34:23.118Z,94816.59
2022-12-11T05:35:25.229Z,94813.91
2022-12-11T05:36:30.862Z,94815.06
2022-12-11T05:37:33.382Z,94818.53
2022-12-11T05:38:36.372Z,94819.28
2022-12-11T05:39:38.469Z,94810.09
2022-12-11T05:40:41.530Z,94815.06
2022-12-11T05:41:43.424Z,94811.63
2022-12-11T05:42:46.343Z,94815.84
2022-12-11T05:43:48.563Z,94810.06
2022-12-11T05:44:51.531Z,94818.88
2022-12-11T05:45:53.826Z,94816.19
2022-12-11T05:46:56.761Z,94821.59
2022-12-11T05:47:58.646Z,94824.28
2022-12-11T05:49:02.920Z,94824.28
2022-12-11T05:50:07.182Z,94823.13
2022-12-11T05:51:10.630Z,94812.75
2022-12-11T05:52:12.538Z,94821.59
2022-12-11T05:53:15.411Z,94824.28
2022-12-11T05:54:17.823Z,94814.66
2022-12-11T05:55:20.743Z,94814.66
2022-12-11T05:56:24.116Z,94829.25
2022-12-11T05:57:26.967Z,94821.19
2022-12-11T05:58:28.841Z,94817.72
2022-12-11T05:59:31.683Z,94810.81
2022-12-11T06:00:36.185Z,94808.13
2022-12-11T06:01:41.615Z,94811.59
2022-12-11T06:02:43.748Z,94805.44
2022-12-11T06:03:46.794Z,94808.13
2022-12-11T06:04:48.874Z,94816.56
2022-12-11T06:05:53.152Z,94805.81
2022-12-11T06:06:55.257Z,94813.13
2022-12-11T06:07:58.364Z,94806.19
2022-12-11T06:09:01.112Z,94809.66
2022-12-11T06:10:04.007Z,94805.03
2022-12-11T06:11:06.782Z,94798.91
2022-12-11T06:12:09.681Z,94807.72
2022-12-11T06:13:11.714Z,94805.81
2022-12-11T06:14:14.947Z,94803.13
2022-12-11T06:15:17.062Z,94802.34
2022-12-11T06:16:20.370Z,94808.50
2022-12-11T06:17:22.286Z,94810.06
2022-12-11T06:18:25.263Z,94803.13
2022-12-11T06:19:28.850Z,94808.50
2022-12-11T06:20:36.239Z,94804.28
2022-12-11T06:21:40.507Z,94817.72
2022-12-11T06:22:42.388Z,94808.50
2022-12-11T06:23:46.850Z,94813.88
2022-12-11T06:24:48.848Z,94808.50
2022-12-11T06:25:51.667Z,94813.88
2022-12-11T06:26:53.490Z,94806.19
2022-12-11T06:27:56.407Z,94817.72
2022-12-11T06:28:58.442Z,94810.78
2022-12-11T06:30:01.458Z,94808.50
2022-12-11T06:31:03.932Z,94809.28
2022-12-11T06:32:06.955Z,94806.19
2022-12-11T06:33:08.879Z,94808.09
2022-12-11T06:34:14.196Z,94804.66
2022-12-11T06:35:16.372Z,94810.78
2022-12-11T06:36:21.954Z,94805.41
2022-12-11T06:37:25.199Z,94808.09
2022-12-11T06:38:28.192Z,94811.97
2022-12-11T06:39:30.240Z,94804.66
2022-12-11T06:40:33.298Z,94813.47
2022-12-11T06:41:35.268Z,94804.66
2022-12-11T06:42:38.871Z,94809.28
2022-12-11T06:43:42.895Z,94805.41
2022-12-11T06:44:45.744Z,94809.28
2022-12-11T06:45:48.179Z,94809.28
2022-12-11T06:46:51.067Z,94801.56
2022-12-11T06:47:52.977Z,94810.41
2022-12-11T06:48:55.839Z,94808.88
2022-12-11T06:49:57.927Z,94812.31
2022-12-11T06:51:00.920Z,94800.81
2022-12-11T06:52:02.915Z,94806.19
2022-12-11T06:53:07.157Z,94806.19
2022-12-11T06:54:10.034Z,94810.81
2022-12-11T06:55:12.111Z,94812.69
2022-12-11T06:56:16.558Z,94804.63
2022-12-11T06:57:19.412Z,94811.56
2022-12-11T06:58:22.300Z,94810.00
2022-12-11T06:59:24.252Z,94810.00
2022-12-11T07:00:27.267Z,94811.94
2022-12-11T07:01:29.597Z,94806.56
2022-12-11T07:02:32.857Z,94809.25
2022-12-11T07:03:34.727Z,94803.09
2022-12-11T07:04:37.674Z,94812.69
2022-12-11T07:05:39.577Z,94807.31
2022-12-11T07:06:42.471Z,94811.94
2022-12-11T07:07:44.659Z,94813.84
2022-12-11T07:08:48.916Z,94819.25
2022-12-11T07:09:50.779Z,94813.09
2022-12-11T07:10:53.667Z,94806.16
2022-12-11T07:11:55.682Z,94819.25
2022-12-11T07:12:58.591Z,94808.09
2022-12-11T07:14:00.644Z,94816.16
2022-12-11T07:15:03.884Z,94816.16
2022-12-11T07:16:10.986Z,94816.16
2022-12-11T07:17:14.067Z,94816.16
2022-12-11T07:18:16.215Z,94814.22
2022-12-11T07:19:19.218Z,94809.25
2022-12-11T07:20:22.076Z,94824.59
2022-12-11T07:21:24.895Z,94817.31
2022-12-11T07:22:26.772Z,94814.63
2022-12-11T07:23:30.087Z,94822.69
2022-12-11T07:24:34.475Z,94813.06
2022-12-11T07:25:37.163Z,94820.00
2022-12-11T07:26:40.332Z,94825.38
2022-12-11T07:27:42.488Z,94821.91
2022-12-11T07:28:46.160Z,94820.75
2022-12-11T07:29:48.062Z,94821.53
2022-12-11T07:30:50.983Z,94822.69
2022-12-11T07:31:53.058Z,94820.00
2022-12-11T07:32:56.163Z,94823.81
2022-12-11T07:34:01.429Z,94823.81
2022-12-11T07:35:03.954Z,94823.81
2022-12-11T07:36:10.349Z,94822.28
2022-12-11T07:37:12.219Z,94820.00
2022-12-11T07:38:15.200Z,94824.59
2022-12-11T07:39:18.057Z,94816.53
2022-12-11T07:40:21.273Z,94824.22
2022-12-11T07:41:24.915Z,94824.59
2022-12-11T07:42:30.690Z,94823.81
2022-12-11T07:43:33.125Z,94822.69
2022-12-11T07:44:36.099Z,94825.38
2022-12-11T07:45:39.748Z,94823.81
2022-12-11T07:46:42.823Z,94823.81
2022-12-11T07:47:45.694Z,94822.28
2022-12-11T07:48:48.252Z,94827.69
2022-12-11T07:49:51.363Z,94827.69
2022-12-11T07:50:54.294Z,94831.91
2022-12-11T07:51:57.351Z,94827.69
2022-12-11T07:53:00.211Z,94827.69
2022-12-11T07:54:05.332Z,94825.00
2022-12-11T07:55:07.509Z,94830.72
2022-12-11T07:56:11.987Z,94835.34
2022-12-11T07:57:14.437Z,94834.59
2022-12-11T07:58:17.417Z,94835.34
2022-12-11T07:59:21.052Z,94835.34
2022-12-11T08:00:24.134Z,94829.97
2022-12-11T08:01:27.872Z,94838.03
2022-12-11T08:02:36.774Z,94833.78
2022-12-11T08:03:40.932Z,94840.72
2022-12-11T08:04:42.830Z,94839.97
2022-12-11T08:05:49.951Z,94835.34
2022-12-11T08:06:51.908Z,94843.06
2022-12-11T08:07:54.808Z,94835.34
2022-12-11T08:08:58.128Z,94836.88
2022-12-11T08:10:01.004Z,94847.63
2022-12-11T08:11:03.704Z,94836.88
2022-12-11T08:12:08.135Z,94841.50
2022-12-11T08:13:10.906Z,94842.25
2022-12-11T08:14:13.882Z,94846.88
2022-12-11T08:15:16.873Z,94843.06
2022-12-11T08:16:19.405Z,94847.63
2022-12-11T08:17:27.498Z,94844.94
2022-12-11T08:18:33.203Z,94847.63
2022-12-11T08:19:36.142Z,94846.88
2022-12-11T08:20:38.616Z,94851.13
2022-12-11T08:21:42.052Z,94850.31
2022-12-11T08:22:44.948Z,94847.63
2022-12-11T08:23:47.797Z,94844.19
2022-12-11T08:24:50.665Z,94845.75
2022-12-11T08:25:52.554Z,94845.75
2022-12-11T08:26:55.729Z,94843.81
2022-12-11T08:27:59.033Z,94843.06
2022-12-11T08:29:02.558Z,94836.88
2022-12-11T08:30:06.965Z,94844.19
2022-12-11T08:31:12.107Z,94847.63
2022-12-11T08:32:16.799Z,94842.25
2022-12-11T08:33:18.733Z,94848.44
2022-12-11T08:34:21.737Z,94851.13
2022-12-11T08:35:23.926Z,94851.88
2022-12-11T08:36:26.889Z,94840.34
2022-12-11T08:37:30.466Z,94846.50
2022-12-11T08:38:32.398Z,94846.50
2022-12-11T08:39:35.321Z,94844.94
2022-12-11T08:40:37.250Z,94850.31
2022-12-11T08:41:40.237Z,94842.25
2022-12-11T08:42:42.303Z,94845.75
2022-12-11T08:43:46.868Z,94849.19
2022-12-11T08:44:50.302Z,94852.25
2022-12-11T08:45:52.201Z,94846.09
2022-12-11T08:46:55.210Z,94848.03
2022-12-11T08:47:58.455Z,94851.50
2022-12-11T08:49:01.385Z,94850.72
2022-12-11T08:50:05.196Z,94847.25
2022-12-11T08:51:10.989Z,94855.31
2022-12-11T08:52:13.881Z,94858.41
2022-12-11T08:53:15.775Z,94864.53
2022-12-11T08:54:18.717Z,94865.69
2022-12-11T08:55:22.225Z,94863.00
2022-12-11T08:56:25.855Z,94868.38
2022-12-11T08:57:29.025Z,94859.16
2022-12-11T08:58:31.154Z,94863.78
2022-12-11T08:59:35.606Z,94863.00
2022-12-11T09:00:37.863Z,94863.78
2022-12-11T09:01:40.837Z,94869.91
2022-12-11T09:02:42.775Z,94864.53
2022-12-11T09:03:45.886Z,94866.06
2022-12-11T09:04:47.801Z,94868.75
2022-12-11T09:05:50.895Z,94873.00
2022-12-11T09:06:53.835Z,94871.44
2022-12-11T09:07:55.793Z,94866.06
2022-12-11T09:09:01.020Z,94865.31
2022-12-11T09:10:04.550Z,94866.06
2022-12-11T09:11:08.938Z,94864.53
2022-12-11T09:12:13.925Z,94861.84
2022-12-11T09:13:15.839Z,94859.16
2022-12-11T09:14:18.701Z,94861.09
2022-12-11T09:15:21.948Z,94862.63
2022-12-11T09:16:26.749Z,94859.16
2022-12-11T09:17:29.571Z,94858.41
2022-12-11T09:18:31.456Z,94865.31
2022-12-11T09:19:34.302Z,94856.47
2022-12-11T09:20:38.454Z,94856.47
2022-12-11T09:21:42.994Z,94857.63
2022-12-11T09:22:44.957Z,94859.53
2022-12-11T09:23:48.754Z,94863.00
2022-12-11T09:24:51.623Z,94858.41
2022-12-11T09:25:53.613Z,94853.00
2022-12-11T09:26:56.539Z,94858.75
2022-12-11T09:27:58.441Z,94856.06
2022-12-11T09:29:04.630Z,94863.75
2022-12-11T09:30:09.362Z,94860.69
2022-12-11T09:31:15.137Z,94861.44
2022-12-11T09:32:18.312Z,94864.13
2022-12-11T09:33:20.260Z,94864.53
2022-12-11T09:34:28.925Z,94862.22
2022-12-11T09:35:31.459Z,94853.00
2022-12-11T09:36:35.248Z,94856.06
2022-12-11T09:37:38.190Z,94852.25
2022-12-11T09:38:40.393Z,94856.06
2022-12-11T09:39:43.391Z,94849.94
2022-12-11T09:40:47.693Z,94859.91
2022-12-11T09:41:56.861Z,94847.59
2022-12-11T09:43:03.658Z,94851.06
2022-12-11T09:44:19.025Z,94855.31
2022-12-11T09:45:22.318Z,94861.44
2022-12-11T09:46:30.575Z,94849.94
2022-12-11T09:47:39.385Z,94843.38
2022-12-11T09:48:44.579Z,94845.31
2022-12-11T09:49:48.224Z,94839.94
2022-12-11T09:50:54.952Z,94845.31
2022-12-11T09:52:05.488Z,94844.56
2022-12-11T09:53:14.134Z,94843.00
2022-12-11T09:54:16.081Z,94846.06
2022-12-11T09:55:24.207Z,94841.47
2022-12-11T09:56:32.666Z,94839.53
2022-12-11T09:57:44.385Z,94837.59
2022-12-11T09:59:01.975Z,94839.13
2022-12-11T10:00:17.060Z,94838.38
2022-12-11T10:01:27.633Z,94833.00
2022-12-11T10:02:43.561Z,94836.44
2022-12-11T10:04:04.361Z,94832.63
2022-12-11T10:05:18.848Z,94833.00
2022-12-11T10:06:24.536Z,94838.38
2022-12-11T10:07:36.126Z,94837.25
2022-12-11T10:08:49.010Z,94839.13
2022-12-11T10:10:01.031Z,94835.31
2022-12-11T10:11:22.127Z,94837.59
2022-12-11T10:12:37.921Z,94830.34
2022-12-11T10:13:51.430Z,94831.88
2022-12-11T10:15:13.412Z,94819.97
2022-12-11T10:16:33.493Z,94829.19
2022-12-11T10:17:41.691Z,94830.72
2022-12-11T10:18:43.902Z,94822.66
2022-12-11T10:19:46.914Z,94826.88
2022-12-11T10:20:52.720Z,94824.56
2022-12-11T10:21:56.174Z,94819.19
2022-12-11T10:23:00.266Z,94818.41
2022-12-11T10:24:11.242Z,94819.97
2022-12-11T10:25:28.479Z,94814.59
2022-12-11T10:26:31.931Z,94816.88
2022-12-11T10:27:35.873Z,94808.81
2022-12-11T10:28:38.816Z,94806.91
2022-12-11T10:29:40.682Z,94808.44
2022-12-11T10:30:49.839Z,94803.44
2022-12-11T10:31:56.439Z,94797.66
2022-12-11T10:33:08.811Z,94795.38
2022-12-11T10:34:13.381Z,94801.50
2022-12-11T10:35:21.865Z,94799.59
2022-12-11T10:36:29.340Z,94797.28
2022-12-11T10:37:31.350Z,94796.50
2022-12-11T10:38:36.800Z,94803.41
2022-12-11T10:39:39.775Z,94797.66
2022-12-11T10:40:44.381Z,94803.81
2022-12-11T10:41:49.577Z,94800.34
2022-12-11T10:42:53.275Z,94793.81
2022-12-11T10:43:56.257Z,94797.66
2022-12-11T10:45:00.441Z,94796.50
2022-12-11T10:46:03.754Z,94790.00
2022-12-11T10:47:11.202Z,94786.50
2022-12-11T10:48:14.449Z,94787.25
2022-12-11T10:49:26.348Z,94779.16
2022-12-11T10:50:30.123Z,94786.06
2022-12-11T10:51:37.555Z,94788.34
2022-12-11T10:52:45.776Z,94790.63
2022-12-11T10:53:51.595Z,94788.72
2022-12-11T10:54:58.622Z,94790.25
2022-12-11T10:56:01.988Z,94777.56
2022-12-11T10:57:06.272Z,94783.34
2022-12-11T10:58:18.979Z,94782.56
2022-12-11T10:59:24.672Z,94776.84
2022-12-11T11:00:35.563Z,94780.69
2022-12-11T11:01:39.205Z,94781.84
2022-12-11T11:02:42.681Z,94778.38
2022-12-11T11:03:58.082Z,94774.53
2022-12-11T11:05:12.019Z,94773.41
2022-12-11T11:06:17.202Z,94773.78
2022-12-11T11:07:23.729Z,94767.63
2022-12-11T11:08:27.652Z,94761.50
2022-12-11T11:09:32.808Z,94764.94
2022-12-11T11:10:35.162Z,94761.88
2022-12-11T11:11:39.597Z,94760.72
2022-12-11T11:12:44.259Z,94757.28
2022-12-11T11:13:47.284Z,94753.06
2022-12-11T11:15:01.513Z,94753.81
2022-12-11T11:16:06.750Z,94756.50
2022-12-11T11:17:16.551Z,94747.28
2022-12-11T11:18:27.016Z,94759.94
2022-12-11T11:19:34.488Z,94753.41
2022-12-11T11:20:37.521Z,94753.78
2022-12-11T11:21:51.211Z,94757.66
2022-12-11T11:22:57.062Z,94751.50
2022-12-11T11:23:59.038Z,94746.13
2022-12-11T11:25:02.599Z,94745.72
2022-12-11T11:26:09.058Z,94738.81
2022-12-11T11:27:27.102Z,94745.75
2022-12-11T11:28:34.078Z,94737.69
2022-12-11T11:29:37.824Z,94737.31
2022-12-11T11:30:42.996Z,94738.78
2022-12-11T11:31:46.007Z,94731.09
2022-12-11T11:32:50.599Z,94732.25
2022-12-11T11:33:57.615Z,94729.97
2022-12-11T11:35:19.761Z,94734.59
2022-12-11T11:36:24.767Z,94728.44
2022-12-11T11:37:33.138Z,94729.94
2022-12-11T11:38:38.639Z,94729.56
2022-12-11T11:39:45.110Z,94729.97
2022-12-11T11:40:59.419Z,94728.03
2022-12-11T11:42:11.482Z,94731.88
2022-12-11T11:43:19.497Z,94728.38
2022-12-11T11:44:29.976Z,94723.00
2022-12-11T11:45:39.571Z,94721.84
2022-12-11T11:46:50.385Z,94719.97
2022-12-11T11:48:06.277Z,94723.00
2022-12-11T11:49:19.973Z,94718.03
2022-12-11T11:50:28.410Z,94716.53
2022-12-11T11:51:35.332Z,94716.13
2022-12-11T11:52:44.233Z,94713.84
2022-12-11T11:53:50.901Z,94718.81
2022-12-11T11:55:06.354Z,94717.66
2022-12-11T11:56:21.287Z,94718.44
2022-12-11T11:57:30.631Z,94716.16
2022-12-11T11:58:40.247Z,94714.22
2022-12-11T11:59:49.249Z,94715.38
2022-12-11T12:00:55.389Z,94715.38
2022-12-11T12:01:59.610Z,94715.78
2022-12-11T12:03:06.209Z,94720.00
2022-12-11T12:04:09.392Z,94715.03
2022-12-11T12:05:14.148Z,94715.41
2022-12-11T12:06:29.152Z,94715.81
2022-12-11T12:07:40.425Z,94717.34
2022-12-11T12:08:46.240Z,94711.19
2022-12-11T12:09:59.221Z,94714.28
2022-12-11T12:11:07.947Z,94710.03
2022-12-11T12:12:25.529Z,94721.56
2022-12-11T12:13:51.244Z,94711.19
2022-12-11T12:15:08.488Z,94710.03
2022-12-11T12:16:51.142Z,94710.03
2022-12-11T12:17:55.444Z,94712.72
2022-12-11T12:19:04.911Z,94715.81
2022-12-11T12:20:19.112Z,94717.72
2022-12-11T12:21:32.151Z,94713.88
2022-12-11T12:22:52.618Z,94713.13
2022-12-11T12:24:10.543Z,94713.13
2022-12-11T12:25:20.929Z,94713.88
2022-12-11T12:26:28.924Z,94712.34
2022-12-11T12:27:52.155Z,94711.97
2022-12-11T12:29:09.540Z,94711.94
2022-12-11T12:30:22.073Z,94714.63
2022-12-11T12:31:49.577Z,94716.94
2022-12-11T12:33:05.787Z,94722.31
2022-12-11T12:34:21.601Z,94728.47
2022-12-11T12:35:35.262Z,94715.03
2022-12-11T12:36:47.215Z,94722.72
2022-12-11T12:37:58.433Z,94715.81
2022-12-11T12:39:03.652Z,94720.41
2022-12-11T12:41:49.952Z,94715.44
2022-12-11T12:43:01.240Z,94720.03
2022-12-11T12:44:16.428Z,94715.44
2022-12-11T12:45:29.507Z,94716.19
2022-12-11T12:46:45.409Z,94713.88
2022-12-11T12:47:53.185Z,94717.72
2022-12-11T12:48:59.766Z,94720.41
2022-12-11T12:50:04.577Z,94720.78